createdAt,value
2022-10-29T00:01:12.836Z,99967.28
2022-10-29T00:03:41.205Z,99891.00
2022-10-29T00:06:12.132Z,99961.41
2022-10-29T00:08:41.479Z,99926.88
2022-10-29T00:11:18.686Z,99986.63
2022-10-29T00:13:49.509Z,99883.56
2022-10-29T00:16:21.226Z,99944.94
2022-10-29T00:18:50.606Z,99977.06
2022-10-29T00:21:25.440Z,99963.19
2022-10-29T00:23:53.963Z,99974.41
2022-10-29T00:26:23.185Z,99937.25
2022-10-29T00:28:56.479Z,99971.19
2022-10-29T00:31:25.260Z,99924.34
2022-10-29T00:33:55.708Z,99975.38
2022-10-29T00:36:28.540Z,99972.19
2022-10-29T00:38:57.476Z,99962.19
2022-10-29T00:41:29.826Z,99964.16
2022-10-29T00:44:15.673Z,99965.28
2022-10-29T00:47:09.473Z,99895.19
2022-10-29T00:49:39.467Z,99938.91
2022-10-29T00:52:09.321Z,99967.94
2022-10-29T00:54:41.517Z,99957.56
2022-10-29T00:57:14.893Z,99961.34
2022-10-29T00:59:43.779Z,99948.75
2022-10-29T01:02:12.098Z,99936.97
2022-10-29T01:04:41.722Z,99950.16
2022-10-29T01:07:09.883Z,99939.09
2022-10-29T01:09:38.173Z,99941.03
2022-10-29T01:12:38.403Z,99959.44
2022-10-29T01:15:29.927Z,99944.69
2022-10-29T01:18:20.004Z,99947.63
2022-10-29T01:21:12.824Z,99932.19
2022-10-29T01:24:01.920Z,99937.25
2022-10-29T01:27:00.639Z,99930.38
2022-10-29T01:29:49.393Z,99915.41
2022-10-29T01:32:54.828Z,99918.63
2022-10-29T01:36:14.046Z,99916.09
2022-10-29T01:39:10.533Z,99916.81
2022-10-29T01:41:54.788Z,99919.59
2022-10-29T01:45:10.072Z,99872.22
2022-10-29T01:47:46.045Z,99910.06
2022-10-29T01:50:20.590Z,99902.91
2022-10-29T01:52:50.455Z,99906.69
2022-10-29T01:55:30.114Z,99901.94
2022-10-29T01:57:58.662Z,99893.25
2022-10-29T02:00:27.598Z,99854.13
2022-10-29T02:03:12.311Z,99889.88
2022-10-29T02:05:54.845Z,99892.09
2022-10-29T02:08:56.475Z,99843.00
2022-10-29T02:12:03.256Z,99881.44
2022-10-29T02:14:40.220Z,99838.78
2022-10-29T02:17:10.847Z,99877.13
2022-10-29T02:19:39.068Z,99874.84
2022-10-29T02:22:07.100Z,99876.13
2022-10-29T02:24:35.277Z,99868.00
2022-10-29T02:27:03.196Z,99879.09
2022-10-29T02:29:31.267Z,99888.47
2022-10-29T02:31:59.360Z,99819.22
2022-10-29T02:34:29.898Z,99872.91
2022-10-29T02:36:58.219Z,99855.69
2022-10-29T02:39:26.232Z,99849.50
2022-10-29T02:41:54.633Z,99840.56
2022-10-29T02:44:22.622Z,99861.84
2022-10-29T02:46:50.904Z,99865.34
2022-10-29T02:49:19.585Z,99856.38
2022-10-29T02:51:47.607Z,99850.63
2022-10-29T02:54:15.715Z,99855.41
2022-10-29T02:56:43.603Z,99768.00
2022-10-29T02:59:12.013Z,99854.13
2022-10-29T03:01:40.542Z,99853.31
2022-10-29T03:04:10.310Z,99801.31
2022-10-29T03:06:38.759Z,99858.47
2022-10-29T03:09:06.874Z,99802.31
2022-10-29T03:11:34.749Z,99847.69
2022-10-29T03:14:02.672Z,99835.91
2022-10-29T03:16:30.631Z,99839.44
2022-10-29T03:18:58.603Z,99834.25
2022-10-29T03:21:26.674Z,99751.31
2022-10-29T03:23:55.059Z,99796.44
2022-10-29T03:26:23.309Z,99789.28
2022-10-29T03:28:51.369Z,99839.41
2022-10-29T03:31:19.374Z,99850.34
2022-10-29T03:33:47.348Z,99847.69
2022-10-29T03:36:15.445Z,99807.22
2022-10-29T03:38:43.690Z,99832.69
2022-10-29T03:41:11.665Z,99840.41
2022-10-29T03:43:40.364Z,99833.56
2022-10-29T03:46:10.123Z,99825.97
2022-10-29T03:48:38.037Z,99827.22
2022-10-29T03:51:07.504Z,99832.28
2022-10-29T03:53:37.299Z,99839.41
2022-10-29T03:56:05.929Z,99815.91
2022-10-29T03:58:34.184Z,99819.38
2022-10-29T04:01:10.456Z,99822.91
2022-10-29T04:03:42.595Z,99815.63
2022-10-29T04:06:14.964Z,99827.53
2022-10-29T04:08:43.244Z,99813.50
2022-10-29T04:11:14.646Z,99747.78
2022-10-29T04:13:42.594Z,99807.06
2022-10-29T04:16:10.521Z,99817.13
2022-10-29T04:18:38.571Z,99806.94
2022-10-29T04:26:42.181Z,99794.75
2022-10-29T04:29:32.199Z,99793.34
2022-10-29T04:32:00.109Z,99785.34
2022-10-29T04:34:27.966Z,99748.63
2022-10-29T04:36:56.115Z,99779.47
2022-10-29T04:39:24.233Z,99788.28
2022-10-29T04:41:52.032Z,99740.50
2022-10-29T04:44:20.405Z,99767.16
2022-10-29T04:46:48.404Z,99783.53
2022-10-29T04:49:16.421Z,99793.22
2022-10-29T04:51:44.497Z,99810.31
2022-10-29T04:54:12.348Z,99752.41
2022-10-29T04:56:40.210Z,99793.47
2022-10-29T04:59:08.601Z,99780.16
2022-10-29T05:04:09.752Z,99744.06
2022-10-29T05:06:37.786Z,99733.66
2022-10-29T05:09:05.752Z,99760.44
2022-10-29T05:11:33.882Z,99740.25
2022-10-29T05:14:01.765Z,99792.63
2022-10-29T05:16:29.662Z,99743.03
2022-10-29T05:18:57.710Z,99787.28
2022-10-29T05:21:25.573Z,99784.78
2022-10-29T05:23:53.440Z,99797.09
2022-10-29T05:26:21.763Z,99791.06
2022-10-29T05:28:51.615Z,99794.84
2022-10-29T05:31:19.783Z,99767.69
2022-10-29T05:33:49.935Z,99763.03
2022-10-29T05:36:20.316Z,99794.41
2022-10-29T05:38:49.969Z,99794.81
2022-10-29T05:41:18.111Z,99783.31
2022-10-29T05:43:50.675Z,99751.69
2022-10-29T05:46:18.584Z,99792.41
2022-10-29T05:48:47.493Z,99782.56
2022-10-29T05:51:15.861Z,99724.06
2022-10-29T05:53:44.845Z,99734.94
2022-10-29T05:56:12.889Z,99731.13
2022-10-29T05:58:41.369Z,99780.69
2022-10-29T06:01:11.071Z,99781.94
2022-10-29T06:03:39.553Z,99739.78
2022-10-29T06:06:08.737Z,99782.63
2022-10-29T06:08:36.864Z,99774.88
2022-10-29T06:11:05.369Z,99783.97
2022-10-29T06:13:33.561Z,99777.16
2022-10-29T06:16:03.112Z,99789.22
2022-10-29T06:18:31.290Z,99781.47
2022-10-29T06:21:01.138Z,99774.84
2022-10-29T06:23:29.506Z,99727.97
2022-10-29T06:26:01.330Z,99765.63
2022-10-29T06:28:34.540Z,99683.84
2022-10-29T06:31:03.501Z,99762.66
2022-10-29T06:33:32.009Z,99745.34
2022-10-29T06:36:02.018Z,99779.06
2022-10-29T06:38:32.534Z,99763.59
2022-10-29T06:41:01.741Z,99772.94
2022-10-29T06:43:30.377Z,99778.66
2022-10-29T06:46:01.394Z,99774.28
2022-10-29T06:48:29.292Z,99785.34
2022-10-29T06:51:02.526Z,99773.44
2022-10-29T06:53:32.498Z,99791.06
2022-10-29T06:56:00.730Z,99787.31
2022-10-29T06:58:28.706Z,99796.09
2022-10-29T07:03:25.909Z,99800.34
2022-10-29T07:05:59.141Z,99802.41
2022-10-29T07:08:29.085Z,99784.50
2022-10-29T07:10:57.395Z,99805.06
2022-10-29T07:13:25.482Z,99790.91
2022-10-29T07:15:53.935Z,99790.22
2022-10-29T07:18:22.716Z,99810.72
2022-10-29T07:20:50.934Z,99778.53
2022-10-29T07:23:19.174Z,99792.59
2022-10-29T07:25:47.068Z,99791.00
2022-10-29T07:28:21.947Z,99792.28
2022-10-29T07:30:50.940Z,99791.00
2022-10-29T07:33:19.764Z,99785.47
2022-10-29T07:35:48.324Z,99782.97
2022-10-29T07:38:18.833Z,99752.09
2022-10-29T07:40:50.224Z,99780.31
2022-10-29T07:43:20.309Z,99773.22
2022-10-29T07:45:50.913Z,99776.34
2022-10-29T07:48:20.948Z,99775.25
2022-10-29T07:50:49.380Z,99729.84
2022-10-29T07:53:18.866Z,99725.41
2022-10-29T07:55:56.650Z,99730.06
2022-10-29T07:58:26.474Z,99728.28
2022-10-29T08:00:55.346Z,99757.63
2022-10-29T08:03:23.563Z,99761.31
2022-10-29T08:05:56.363Z,99724.97
2022-10-29T08:08:26.459Z,99707.91
2022-10-29T08:11:04.575Z,99739.25
2022-10-29T08:13:33.711Z,99761.22
2022-10-29T08:16:01.679Z,99727.06
2022-10-29T08:18:29.620Z,99734.44
2022-10-29T08:20:58.211Z,99732.91
2022-10-29T08:23:26.181Z,99690.53
2022-10-29T08:25:54.150Z,99727.91
2022-10-29T08:28:25.643Z,99727.41
2022-10-29T08:30:54.059Z,99730.25
2022-10-29T08:33:22.643Z,99725.69
2022-10-29T08:35:52.836Z,99729.50
2022-10-29T08:38:24.525Z,99701.88
2022-10-29T08:41:11.445Z,99745.34
2022-10-29T08:44:10.775Z,99741.63
2022-10-29T08:46:54.241Z,99734.56
2022-10-29T08:49:51.047Z,99747.16
2022-10-29T08:52:28.951Z,99701.22
2022-10-29T08:55:22.920Z,99730.78
2022-10-29T08:58:00.001Z,99734.38
2022-10-29T09:00:35.230Z,99734.25
2022-10-29T09:03:09.582Z,99700.06
2022-10-29T09:05:51.149Z,99671.31
2022-10-29T09:08:46.066Z,99711.56
2022-10-29T09:11:59.463Z,99701.03
2022-10-29T09:14:33.478Z,99672.47
2022-10-29T09:17:20.256Z,99709.44
2022-10-29T09:20:19.074Z,99701.81
2022-10-29T09:23:32.118Z,99712.13
2022-10-29T09:26:04.780Z,99698.97
2022-10-29T09:29:06.859Z,99693.06
2022-10-29T09:31:42.706Z,99676.38
2022-10-29T09:34:22.653Z,99694.00
2022-10-29T09:36:52.139Z,99686.75
2022-10-29T09:39:42.348Z,99671.13
2022-10-29T09:42:26.146Z,99665.97
2022-10-29T09:44:58.655Z,99625.47
2022-10-29T09:48:02.666Z,99660.75
2022-10-29T09:50:54.676Z,99622.53
2022-10-29T09:53:24.575Z,99620.09
2022-10-29T09:55:55.808Z,99652.53
2022-10-29T09:58:27.012Z,99576.50
2022-10-29T10:00:57.472Z,99651.34
2022-10-29T10:03:44.111Z,99617.94
2022-10-29T10:06:16.489Z,99646.22
2022-10-29T10:09:01.033Z,99647.19
2022-10-29T10:11:43.205Z,99607.03
2022-10-29T10:14:31.706Z,99638.06
2022-10-29T10:17:01.910Z,99635.31
2022-10-29T10:19:32.617Z,99643.81
2022-10-29T10:22:04.060Z,99634.31
2022-10-29T10:24:35.837Z,99637.41
2022-10-29T10:27:18.892Z,99642.00
2022-10-29T10:30:05.366Z,99635.94
2022-10-29T10:32:33.617Z,99616.84
2022-10-29T10:35:01.513Z,99608.34
2022-10-29T10:37:33.756Z,99582.63
2022-10-29T10:40:05.726Z,99579.00
2022-10-29T10:42:39.715Z,99487.44
2022-10-29T10:45:26.061Z,99614.81
2022-10-29T10:48:03.036Z,99617.50
2022-10-29T10:50:34.724Z,99547.84
2022-10-29T10:53:17.669Z,99549.13
2022-10-29T10:55:53.356Z,99611.75
2022-10-29T10:58:40.460Z,99601.75
2022-10-29T11:01:30.625Z,99614.56
2022-10-29T11:04:36.193Z,99620.09
2022-10-29T11:07:11.364Z,99600.16
2022-10-29T11:09:49.272Z,99594.97
2022-10-29T11:12:40.555Z,99593.91
2022-10-29T11:15:25.417Z,99583.22
2022-10-29T11:18:05.376Z,99587.50
2022-10-29T11:20:37.300Z,99601.78
2022-10-29T11:23:17.295Z,99595.09
2022-10-29T11:25:56.597Z,99598.13
2022-10-29T11:29:05.192Z,99584.16
2022-10-29T11:32:16.956Z,99581.56
2022-10-29T11:34:59.667Z,99589.63
2022-10-29T11:37:53.012Z,99585.69
2022-10-29T11:40:39.174Z,99570.50
2022-10-29T11:43:15.304Z,99606.09
2022-10-29T11:46:19.078Z,99601.69
2022-10-29T11:49:37.603Z,99605.22
2022-10-29T11:52:59.341Z,99600.59
2022-10-29T11:56:04.093Z,99592.56
2022-10-29T11:58:50.905Z,99591.19
2022-10-29T12:01:40.847Z,99544.75
2022-10-29T12:04:24.724Z,99561.91
2022-10-29T12:07:15.476Z,99574.41
2022-10-29T12:09:54.567Z,99556.75
2022-10-29T12:13:29.501Z,99544.75
2022-10-29T12:16:25.932Z,99538.84
2022-10-29T12:19:36.869Z,99559.91
2022-10-29T12:22:32.738Z,99566.59
2022-10-29T12:25:24.765Z,99577.22
2022-10-29T12:28:27.616Z,99588.19
2022-10-29T12:30:58.465Z,99595.84
2022-10-29T12:34:17.540Z,99592.22
2022-10-29T12:37:15.159Z,99608.03
2022-10-29T12:39:53.311Z,99567.16
2022-10-29T12:42:31.863Z,99605.50
2022-10-29T12:46:18.921Z,99570.66
2022-10-29T12:48:58.620Z,99602.09
2022-10-29T12:51:48.487Z,99590.50
2022-10-29T12:54:47.731Z,99592.84
2022-10-29T12:57:15.658Z,99583.13
2022-10-29T12:59:45.757Z,99570.63
2022-10-29T13:02:38.065Z,99539.00
2022-10-29T13:05:09.925Z,99576.41
2022-10-29T13:07:45.240Z,99575.53
2022-10-29T13:10:22.664Z,99575.72
2022-10-29T13:13:05.783Z,99573.38
2022-10-29T13:15:43.401Z,99571.75
2022-10-29T13:18:41.235Z,99541.38
2022-10-29T13:21:09.876Z,99565.56
2022-10-29T13:23:40.671Z,99525.53
2022-10-29T13:26:10.166Z,99563.03
2022-10-29T13:28:37.941Z,99583.00
2022-10-29T13:31:08.625Z,99582.25
2022-10-29T13:33:36.631Z,99540.19
2022-10-29T13:36:10.126Z,99580.28
2022-10-29T13:39:04.923Z,99593.81
2022-10-29T13:41:49.097Z,99589.66
2022-10-29T13:44:23.190Z,99579.88
2022-10-29T13:47:05.210Z,99577.00
2022-10-29T13:49:47.433Z,99568.69
2022-10-29T13:52:19.361Z,99562.03
2022-10-29T13:55:00.338Z,99570.34
2022-10-29T13:58:13.743Z,99539.06
2022-10-29T14:00:44.579Z,99519.34
2022-10-29T14:03:29.914Z,99557.78
2022-10-29T14:06:09.150Z,99568.94
2022-10-29T14:09:22.781Z,99535.75
2022-10-29T14:12:02.531Z,99592.81
2022-10-29T14:14:35.278Z,99561.69
2022-10-29T14:17:15.696Z,99590.00
2022-10-29T14:19:51.545Z,99569.31
2022-10-29T14:22:36.578Z,99584.81
2022-10-29T14:25:27.265Z,99582.44
2022-10-29T14:28:33.436Z,99614.03
2022-10-29T14:31:05.759Z,99611.66
2022-10-29T14:33:53.349Z,99608.66
2022-10-29T14:36:38.416Z,99610.06
2022-10-29T14:39:37.084Z,99595.47
2022-10-29T14:42:28.401Z,99558.34
2022-10-29T14:45:00.061Z,99597.41
2022-10-29T14:47:35.685Z,99591.00
2022-10-29T14:50:15.382Z,99609.00
2022-10-29T14:52:53.348Z,99605.91
2022-10-29T14:55:37.465Z,99618.81
2022-10-29T14:58:20.748Z,99615.81
2022-10-29T15:01:02.181Z,99623.38
2022-10-29T15:03:33.379Z,99631.72
2022-10-29T15:06:20.432Z,99583.53
2022-10-29T15:09:20.559Z,99555.28
2022-10-29T15:12:01.909Z,99582.06
2022-10-29T15:14:37.889Z,99637.72
2022-10-29T15:17:29.241Z,99632.78
2022-10-29T15:20:06.930Z,99637.63
2022-10-29T15:22:38.631Z,99600.78
2022-10-29T15:25:18.529Z,99533.25
2022-10-29T15:27:46.776Z,99651.09
2022-10-29T15:30:31.700Z,99652.25
2022-10-29T15:33:13.695Z,99651.72
2022-10-29T15:35:54.572Z,99647.91
2022-10-29T15:38:32.878Z,99652.63
2022-10-29T15:41:12.787Z,99654.84
2022-10-29T15:43:56.280Z,99643.22
2022-10-29T15:46:49.007Z,99609.19
2022-10-29T15:49:17.348Z,99613.13
2022-10-29T15:51:45.847Z,99622.63
2022-10-29T15:54:14.509Z,99654.75
2022-10-29T15:56:42.901Z,99662.34
2022-10-29T15:59:18.657Z,99670.28
2022-10-29T16:01:46.972Z,99659.94
2022-10-29T16:04:14.901Z,99656.47
2022-10-29T16:06:42.894Z,99670.47
2022-10-29T16:09:18.822Z,99666.16
2022-10-29T16:11:47.018Z,99619.88
2022-10-29T16:14:15.130Z,99674.50
2022-10-29T16:16:43.189Z,99678.75
2022-10-29T16:19:11.147Z,99674.41
2022-10-29T16:21:40.307Z,99642.97
2022-10-29T16:24:15.890Z,99673.09
2022-10-29T16:26:44.195Z,99677.66
2022-10-29T16:29:12.099Z,99646.19
2022-10-29T16:31:42.549Z,99604.84
2022-10-29T16:34:13.803Z,99645.56
2022-10-29T16:36:41.870Z,99674.19
2022-10-29T16:39:09.857Z,99681.22
2022-10-29T16:41:37.855Z,99683.22
2022-10-29T16:44:05.770Z,99658.25
2022-10-29T16:46:33.787Z,99680.19
2022-10-29T16:49:01.984Z,99681.84
2022-10-29T16:51:29.929Z,99657.75
2022-10-29T16:53:59.581Z,99693.72
2022-10-29T16:56:27.526Z,99686.88
2022-10-29T16:59:01.706Z,99704.09
2022-10-29T17:01:30.531Z,99699.25
2022-10-29T17:03:59.736Z,99704.28
2022-10-29T17:06:27.810Z,99694.72
2022-10-29T17:08:56.001Z,99705.44
2022-10-29T17:11:24.007Z,99698.72
2022-10-29T17:13:52.379Z,99620.88
2022-10-29T17:16:20.719Z,99697.41
2022-10-29T17:18:50.849Z,99698.38
2022-10-29T17:21:18.921Z,99686.16
2022-10-29T17:23:48.787Z,99707.22
2022-10-29T17:26:18.815Z,99710.91
2022-10-29T17:28:47.084Z,99693.94
2022-10-29T17:31:15.074Z,99687.38
2022-10-29T17:33:42.989Z,99673.81
2022-10-29T17:36:15.926Z,99716.03
2022-10-29T17:38:44.190Z,99713.53
2022-10-29T17:41:12.754Z,99705.09
2022-10-29T17:43:41.137Z,99718.88
2022-10-29T17:46:09.147Z,99727.88
2022-10-29T17:48:37.137Z,99713.63
2022-10-29T17:51:05.907Z,99730.25
2022-10-29T17:53:34.091Z,99730.09
2022-10-29T17:56:02.156Z,99733.63
2022-10-29T17:58:31.327Z,99723.97
2022-10-29T18:01:08.364Z,99741.56
2022-10-29T18:03:38.017Z,99732.00
2022-10-29T18:06:10.332Z,99714.78
2022-10-29T18:08:40.778Z,99730.22
2022-10-29T18:11:22.117Z,99729.41
2022-10-29T18:13:51.093Z,99720.00
2022-10-29T18:16:23.369Z,99723.34
2022-10-29T18:19:01.635Z,99738.44
2022-10-29T18:21:31.987Z,99710.81
2022-10-29T18:24:00.243Z,99722.84
2022-10-29T18:26:37.250Z,99708.41
2022-10-29T18:29:12.248Z,99728.19
2022-10-29T18:31:45.139Z,99731.34
2022-10-29T18:34:15.455Z,99738.03
2022-10-29T18:36:43.740Z,99713.94
2022-10-29T18:39:12.460Z,99733.03
2022-10-29T18:41:41.076Z,99732.38
2022-10-29T18:44:09.182Z,99719.13
2022-10-29T18:46:37.238Z,99716.28
2022-10-29T18:49:05.536Z,99733.53
2022-10-29T18:51:33.768Z,99737.38
2022-10-29T18:54:01.871Z,99738.06
2022-10-29T18:56:31.479Z,99749.13
2022-10-29T18:59:00.449Z,99694.34
2022-10-29T19:01:32.342Z,99739.09
2022-10-29T19:04:08.613Z,99747.81
2022-10-29T19:06:38.263Z,99749.97
2022-10-29T19:09:09.536Z,99708.97
2022-10-29T19:11:37.887Z,99747.63
2022-10-29T19:14:12.227Z,99713.47
2022-10-29T19:16:40.672Z,99759.69
2022-10-29T19:19:16.044Z,99745.28
2022-10-29T19:21:47.345Z,99759.69
2022-10-29T19:24:16.676Z,99756.84
2022-10-29T19:26:45.230Z,99752.66
2022-10-29T19:29:14.199Z,99746.31
2022-10-29T19:31:46.582Z,99755.16
2022-10-29T19:34:17.347Z,99757.50
2022-10-29T19:36:45.426Z,99757.16
2022-10-29T19:39:16.510Z,99758.47
2022-10-29T19:41:44.795Z,99747.59
2022-10-29T19:44:14.959Z,99758.47
2022-10-29T19:46:43.837Z,99735.53
2022-10-29T19:49:11.964Z,99760.63
2022-10-29T19:51:40.683Z,99759.13
2022-10-29T19:54:08.817Z,99758.75
2022-10-29T19:56:37.005Z,99760.28
2022-10-29T19:59:05.708Z,99773.78
2022-10-29T20:01:33.942Z,99767.41
2022-10-29T20:04:02.297Z,99755.31
2022-10-29T20:06:30.354Z,99777.56
2022-10-29T20:09:00.597Z,99775.56
2022-10-29T20:11:29.763Z,99765.84
2022-10-29T20:13:57.967Z,99763.16
2022-10-29T20:16:26.050Z,99771.00
2022-10-29T20:18:55.190Z,99771.16
2022-10-29T20:21:23.178Z,99742.84
2022-10-29T20:23:52.692Z,99739.09
2022-10-29T20:26:22.643Z,99774.28
2022-10-29T20:28:50.668Z,99757.31
2022-10-29T20:31:18.559Z,99794.50
2022-10-29T20:33:56.011Z,99789.28
2022-10-29T20:36:28.022Z,99780.06
2022-10-29T20:38:57.964Z,99786.09
2022-10-29T20:41:26.197Z,99752.00
2022-10-29T20:44:01.531Z,99765.44
2022-10-29T20:46:29.891Z,99784.91
2022-10-29T20:48:58.030Z,99785.28
2022-10-29T20:51:26.695Z,99799.84
2022-10-29T20:53:55.164Z,99795.44
2022-10-29T20:56:27.519Z,99754.34
2022-10-29T20:58:55.597Z,99790.44
2022-10-29T21:01:26.476Z,99769.25
2022-10-29T21:03:54.686Z,99786.34
2022-10-29T21:06:23.197Z,99749.50
2022-10-29T21:08:52.581Z,99778.97
2022-10-29T21:11:22.327Z,99786.88
2022-10-29T21:13:50.953Z,99784.53
2022-10-29T21:16:28.108Z,99779.19
2022-10-29T21:18:59.527Z,99789.16
2022-10-29T21:21:33.212Z,99803.41
2022-10-29T21:24:01.127Z,99783.91
2022-10-29T21:26:29.877Z,99795.88
2022-10-29T21:28:58.550Z,99805.03
2022-10-29T21:31:26.553Z,99751.59
2022-10-29T21:33:56.305Z,99795.72
2022-10-29T21:36:24.485Z,99793.06
2022-10-29T21:38:58.407Z,99786.00
2022-10-29T21:41:28.591Z,99770.44
2022-10-29T21:43:56.562Z,99770.88
2022-10-29T21:46:30.026Z,99765.66
2022-10-29T21:49:00.798Z,99735.00
2022-10-29T21:51:29.273Z,99752.56
2022-10-29T21:53:59.288Z,99753.22
2022-10-29T21:56:27.412Z,99710.47
2022-10-29T21:58:55.540Z,99748.13
2022-10-29T22:01:23.652Z,99747.75
2022-10-29T22:03:51.916Z,99734.19
2022-10-29T22:06:22.922Z,99701.19
2022-10-29T22:08:59.848Z,99682.34
2022-10-29T22:11:28.957Z,99735.25
2022-10-29T22:13:58.139Z,99742.84
2022-10-29T22:16:26.258Z,99721.00
2022-10-29T22:18:54.269Z,99746.72
2022-10-29T22:21:27.294Z,99731.94
2022-10-29T22:24:00.288Z,99763.66
2022-10-29T22:26:39.001Z,99766.06
2022-10-29T22:29:07.490Z,99783.00
2022-10-29T22:31:35.452Z,99725.38
2022-10-29T22:34:03.467Z,99777.59
2022-10-29T22:36:33.322Z,99732.91
2022-10-29T22:39:01.746Z,99751.22
2022-10-29T22:41:30.547Z,99783.53
2022-10-29T22:43:59.304Z,99775.34
2022-10-29T22:46:29.936Z,99729.75
2022-10-29T22:48:58.256Z,99758.19
2022-10-29T22:51:31.880Z,99726.31
2022-10-29T22:54:00.054Z,99774.22
2022-10-29T22:56:34.923Z,99769.56
2022-10-29T22:59:04.237Z,99741.19
2022-10-29T23:01:40.278Z,99754.47
2022-10-29T23:04:12.088Z,99762.84
2022-10-29T23:06:40.272Z,99687.16
2022-10-29T23:09:08.596Z,99741.66
2022-10-29T23:11:39.238Z,99779.09
2022-10-29T23:14:09.005Z,99780.31
2022-10-29T23:16:37.159Z,99720.28
2022-10-29T23:19:06.750Z,99777.84
2022-10-29T23:21:35.946Z,99762.66
2022-10-29T23:24:04.047Z,99721.41
2022-10-29T23:26:31.880Z,99723.41
2022-10-29T23:28:59.843Z,99766.72
2022-10-29T23:31:29.125Z,99754.84
2022-10-29T23:33:58.757Z,99764.47
2022-10-29T23:36:28.189Z,99750.03
2022-10-29T23:39:01.576Z,99745.63
2022-10-29T23:41:31.580Z,99753.94
2022-10-29T23:43:59.943Z,99767.25
2022-10-29T23:46:27.796Z,99743.75
2022-10-29T23:48:56.028Z,99757.53
2022-10-29T23:51:23.913Z,99743.66
2022-10-29T23:53:54.855Z,99722.41
2022-10-29T23:56:25.982Z,99711.56
2022-10-29T23:58:54.169Z,99713.59
